Paradise, Montana
Current Conditions -  °F | °C
As of 7:53 AM on Wednesday 22 Oct 2014 (Local Time) from KMLP Reporting Station
Haze Haze  
Wind Chill: 27°   Ceiling: Unl
Heat Index: 33°   Visibility: 5mi
Dew Point: 32°   Wind: 7mph
Humidity: 96%   Direction: NA
Pressure: 29.98"   Gusts: NA
Location:  47.39°N, 114.8°W
Report Text: KMLP 221353Z AUTO VRB06KT 5SM BR SCT004 01/00 A2998 RMK AO2 SLP122 T00060000
Loading
Personal Weather Stations






























Interactive Weather Map
Tropical Storm Tracking
New forecast layout! Learn more

10-Day Weather Forecast

Advertisements
Track Severe Weather on mobile